sensor_id;sensor_type;location;lat;lon;timestamp;temperature;humidity
19862;DHT22;10093;48.148;8.542;2022-09-13T00:00:43;9.70;99.90
19862;DHT22;10093;48.148;8.542;2022-09-13T00:03:10;9.60;99.90
19862;DHT22;10093;48.148;8.542;2022-09-13T00:05:37;9.50;99.90
19862;DHT22;10093;48.148;8.542;2022-09-13T00:08:03;9.40;99.90
19862;DHT22;10093;48.148;8.542;2022-09-13T00:10:29;9.40;99.90
19862;DHT22;10093;48.148;8.542;2022-09-13T00:12:55;9.40;99.90
19862;DHT22;10093;48.148;8.542;2022-09-13T00:15:22;9.30;99.90
19862;DHT22;10093;48.148;8.542;2022-09-13T00:17:47;9.40;99.90
19862;DHT22;10093;48.148;8.542;2022-09-13T00:20:13;9.70;99.90
19862;DHT22;10093;48.148;8.542;2022-09-13T00:22:39;10.00;99.90
19862;DHT22;10093;48.148;8.542;2022-09-13T00:25:05;10.00;99.90
19862;DHT22;10093;48.148;8.542;2022-09-13T00:27:32;10.10;99.90
19862;DHT22;10093;48.148;8.542;2022-09-13T00:29:58;10.10;99.90
19862;DHT22;10093;48.148;8.542;2022-09-13T00:32:24;10.00;99.90
19862;DHT22;10093;48.148;8.542;2022-09-13T00:34:49;9.90;99.90
19862;DHT22;10093;48.148;8.542;2022-09-13T00:37:15;9.80;99.90
19862;DHT22;10093;48.148;8.542;2022-09-13T00:39:40;9.80;99.90
19862;DHT22;10093;48.148;8.542;2022-09-13T00:42:13;10.00;99.90
19862;DHT22;10093;48.148;8.542;2022-09-13T00:47:44;9.90;99.90
19862;DHT22;10093;48.148;8.542;2022-09-13T00:50:30;9.70;99.90
19862;DHT22;10093;48.148;8.542;2022-09-13T00:53:25;9.80;99.90
19862;DHT22;10093;48.148;8.542;2022-09-13T00:55:56;9.70;99.90
19862;DHT22;10093;48.148;8.542;2022-09-13T00:58:39;9.60;99.90
19862;DHT22;10093;48.148;8.542;2022-09-13T01:01:10;9.60;99.90
19862;DHT22;10093;48.148;8.542;2022-09-13T01:03:38;9.70;99.90
19862;DHT22;10093;48.148;8.542;2022-09-13T01:06:25;9.60;99.90
19862;DHT22;10093;48.148;8.542;2022-09-13T01:08:58;9.60;99.90
19862;DHT22;10093;48.148;8.542;2022-09-13T01:11:48;9.50;99.90
19862;DHT22;10093;48.148;8.542;2022-09-13T01:14:17;9.40;99.90
19862;DHT22;10093;48.148;8.542;2022-09-13T01:16:43;9.40;99.90
19862;DHT22;10093;48.148;8.542;2022-09-13T01:19:08;9.40;99.90
19862;DHT22;10093;48.148;8.542;2022-09-13T01:30:22;9.50;99.90
19862;DHT22;10093;48.148;8.542;2022-09-13T01:33:00;9.40;99.90
19862;DHT22;10093;48.148;8.542;2022-09-13T01:52:17;9.20;99.90
19862;DHT22;10093;48.148;8.542;2022-09-13T01:54:50;9.20;99.90
19862;DHT22;10093;48.148;8.542;2022-09-13T01:57:35;9.10;99.90
19862;DHT22;10093;48.148;8.542;2022-09-13T02:00:14;9.20;99.90
19862;DHT22;10093;48.148;8.542;2022-09-13T02:06:04;9.20;99.90
19862;DHT22;10093;48.148;8.542;2022-09-13T02:08:36;9.00;99.90
19862;DHT22;10093;48.148;8.542;2022-09-13T02:11:10;9.00;99.90
19862;DHT22;10093;48.148;8.542;2022-09-13T02:13:40;9.10;99.90
19862;DHT22;10093;48.148;8.542;2022-09-13T02:16:35;9.30;99.90
19862;DHT22;10093;48.148;8.542;2022-09-13T02:19:26;9.20;99.90
19862;DHT22;10093;48.148;8.542;2022-09-13T02:21:56;8.90;99.90
19862;DHT22;10093;48.148;8.542;2022-09-13T02:24:39;8.60;99.90
19862;DHT22;10093;48.148;8.542;2022-09-13T02:27:09;8.50;99.90
19862;DHT22;10093;48.148;8.542;2022-09-13T02:29:39;8.60;99.90
19862;DHT22;10093;48.148;8.542;2022-09-13T02:32:37;8.50;99.90
19862;DHT22;10093;48.148;8.542;2022-09-13T02:35:19;8.60;99.90
19862;DHT22;10093;48.148;8.542;2022-09-13T02:38:04;8.50;99.90
19862;DHT22;10093;48.148;8.542;2022-09-13T02:40:36;8.80;99.90
19862;DHT22;10093;48.148;8.542;2022-09-13T02:43:11;8.90;99.90
19862;DHT22;10093;48.148;8.542;2022-09-13T02:48:28;8.60;99.90
19862;DHT22;10093;48.148;8.542;2022-09-13T02:51:19;8.70;99.90
19862;DHT22;10093;48.148;8.542;2022-09-13T02:53:58;8.70;99.90
19862;DHT22;10093;48.148;8.542;2022-09-13T02:57:00;8.80;99.90
19862;DHT22;10093;48.148;8.542;2022-09-13T02:59:29;8.70;99.90
19862;DHT22;10093;48.148;8.542;2022-09-13T03:02:06;8.50;99.90
19862;DHT22;10093;48.148;8.542;2022-09-13T03:04:33;8.50;99.90
19862;DHT22;10093;48.148;8.542;2022-09-13T03:07:00;8.40;99.90
19862;DHT22;10093;48.148;8.542;2022-09-13T03:09:26;8.20;99.90
19862;DHT22;10093;48.148;8.542;2022-09-13T03:21:38;8.70;99.90
19862;DHT22;10093;48.148;8.542;2022-09-13T03:24:21;8.70;99.90
19862;DHT22;10093;48.148;8.542;2022-09-13T03:29:35;8.80;99.90
19862;DHT22;10093;48.148;8.542;2022-09-13T03:40:15;8.60;99.90
19862;DHT22;10093;48.148;8.542;2022-09-13T03:42:51;8.70;99.90
19862;DHT22;10093;48.148;8.542;2022-09-13T03:45:22;8.70;99.90
19862;DHT22;10093;48.148;8.542;2022-09-13T03:47:49;8.70;99.90
19862;DHT22;10093;48.148;8.542;2022-09-13T03:50:19;8.60;99.90
19862;DHT22;10093;48.148;8.542;2022-09-13T03:52:47;8.50;99.90
19862;DHT22;10093;48.148;8.542;2022-09-13T03:55:18;8.40;99.90
19862;DHT22;10093;48.148;8.542;2022-09-13T03:57:44;8.40;99.90
19862;DHT22;10093;48.148;8.542;2022-09-13T04:00:12;8.40;99.90
19862;DHT22;10093;48.148;8.542;2022-09-13T04:02:38;8.40;99.90
19862;DHT22;10093;48.148;8.542;2022-09-13T04:05:04;8.30;99.90
19862;DHT22;10093;48.148;8.542;2022-09-13T04:07:29;8.30;99.90
19862;DHT22;10093;48.148;8.542;2022-09-13T04:09:55;8.30;99.90
19862;DHT22;10093;48.148;8.542;2022-09-13T04:12:21;8.00;99.90
19862;DHT22;10093;48.148;8.542;2022-09-13T04:14:47;7.90;99.90
19862;DHT22;10093;48.148;8.542;2022-09-13T04:17:14;7.90;99.90
19862;DHT22;10093;48.148;8.542;2022-09-13T04:19:40;8.00;99.90
19862;DHT22;10093;48.148;8.542;2022-09-13T04:22:06;7.80;99.90
19862;DHT22;10093;48.148;8.542;2022-09-13T04:24:31;7.80;99.90
19862;DHT22;10093;48.148;8.542;2022-09-13T04:26:57;7.90;99.90
19862;DHT22;10093;48.148;8.542;2022-09-13T04:29:25;8.00;99.90
19862;DHT22;10093;48.148;8.542;2022-09-13T04:31:52;7.80;99.90
19862;DHT22;10093;48.148;8.542;2022-09-13T04:34:18;7.80;99.90
19862;DHT22;10093;48.148;8.542;2022-09-13T04:36:46;8.00;99.90
19862;DHT22;10093;48.148;8.542;2022-09-13T04:39:12;8.20;99.90
19862;DHT22;10093;48.148;8.542;2022-09-13T04:41:41;8.20;99.90
19862;DHT22;10093;48.148;8.542;2022-09-13T04:44:09;8.20;99.90
19862;DHT22;10093;48.148;8.542;2022-09-13T04:46:35;8.10;99.90
19862;DHT22;10093;48.148;8.542;2022-09-13T04:49:00;8.30;99.90
19862;DHT22;10093;48.148;8.542;2022-09-13T04:51:26;8.20;99.90
19862;DHT22;10093;48.148;8.542;2022-09-13T04:53:53;8.30;99.90
19862;DHT22;10093;48.148;8.542;2022-09-13T04:56:20;8.40;99.90
19862;DHT22;10093;48.148;8.542;2022-09-13T04:58:49;8.50;99.90
19862;DHT22;10093;48.148;8.542;2022-09-13T05:01:15;8.40;99.90
19862;DHT22;10093;48.148;8.542;2022-09-13T05:03:41;8.50;99.90
19862;DHT22;10093;48.148;8.542;2022-09-13T05:06:08;8.40;99.90
19862;DHT22;10093;48.148;8.542;2022-09-13T05:08:35;8.30;99.90
19862;DHT22;10093;48.148;8.542;2022-09-13T05:11:01;8.30;99.90
19862;DHT22;10093;48.148;8.542;2022-09-13T05:13:27;8.30;99.90
19862;DHT22;10093;48.148;8.542;2022-09-13T05:16:02;8.30;99.90
19862;DHT22;10093;48.148;8.542;2022-09-13T05:18:29;8.30;99.90
19862;DHT22;10093;48.148;8.542;2022-09-13T05:20:56;8.30;99.90
19862;DHT22;10093;48.148;8.542;2022-09-13T05:23:22;8.40;99.90
19862;DHT22;10093;48.148;8.542;2022-09-13T05:25:59;8.40;99.90
19862;DHT22;10093;48.148;8.542;2022-09-13T05:28:30;8.30;99.90
19862;DHT22;10093;48.148;8.542;2022-09-13T05:30:57;8.30;99.90
19862;DHT22;10093;48.148;8.542;2022-09-13T05:33:23;8.40;99.90
19862;DHT22;10093;48.148;8.542;2022-09-13T05:35:50;8.60;99.90
19862;DHT22;10093;48.148;8.542;2022-09-13T05:38:16;8.70;99.90
19862;DHT22;10093;48.148;8.542;2022-09-13T05:40:41;8.90;99.90
19862;DHT22;10093;48.148;8.542;2022-09-13T05:43:07;9.00;99.90
19862;DHT22;10093;48.148;8.542;2022-09-13T05:45:33;9.10;99.90
19862;DHT22;10093;48.148;8.542;2022-09-13T05:47:58;9.10;99.90
19862;DHT22;10093;48.148;8.542;2022-09-13T05:50:24;9.20;99.90
19862;DHT22;10093;48.148;8.542;2022-09-13T05:52:54;10.30;99.90
19862;DHT22;10093;48.148;8.542;2022-09-13T05:55:20;11.50;99.90
19862;DHT22;10093;48.148;8.542;2022-09-13T05:57:47;11.50;99.90
19862;DHT22;10093;48.148;8.542;2022-09-13T06:00:13;11.00;99.90
19862;DHT22;10093;48.148;8.542;2022-09-13T06:02:39;11.10;99.90
19862;DHT22;10093;48.148;8.542;2022-09-13T06:05:06;12.00;99.90
19862;DHT22;10093;48.148;8.542;2022-09-13T06:07:32;13.80;99.90
19862;DHT22;10093;48.148;8.542;2022-09-13T06:09:57;15.70;99.90
19862;DHT22;10093;48.148;8.542;2022-09-13T06:12:23;17.20;99.90
19862;DHT22;10093;48.148;8.542;2022-09-13T06:14:49;18.50;99.90
19862;DHT22;10093;48.148;8.542;2022-09-13T06:17:14;20.00;99.90
19862;DHT22;10093;48.148;8.542;2022-09-13T06:19:40;21.20;99.90
19862;DHT22;10093;48.148;8.542;2022-09-13T06:22:05;21.80;99.90
19862;DHT22;10093;48.148;8.542;2022-09-13T06:24:31;22.70;99.90
19862;DHT22;10093;48.148;8.542;2022-09-13T06:26:57;22.70;99.90
19862;DHT22;10093;48.148;8.542;2022-09-13T06:29:23;22.90;99.90
19862;DHT22;10093;48.148;8.542;2022-09-13T06:31:48;23.60;99.90
19862;DHT22;10093;48.148;8.542;2022-09-13T06:34:14;25.40;99.90
19862;DHT22;10093;48.148;8.542;2022-09-13T06:36:41;26.30;99.90
19862;DHT22;10093;48.148;8.542;2022-09-13T06:39:07;27.00;99.90
19862;DHT22;10093;48.148;8.542;2022-09-13T06:41:33;26.90;99.90
19862;DHT22;10093;48.148;8.542;2022-09-13T06:44:00;28.20;99.90
19862;DHT22;10093;48.148;8.542;2022-09-13T06:46:28;27.80;99.90
19862;DHT22;10093;48.148;8.542;2022-09-13T06:48:57;28.40;99.90
19862;DHT22;10093;48.148;8.542;2022-09-13T06:51:24;28.30;99.90
19862;DHT22;10093;48.148;8.542;2022-09-13T06:53:51;29.30;99.90
19862;DHT22;10093;48.148;8.542;2022-09-13T06:56:19;29.80;99.90
19862;DHT22;10093;48.148;8.542;2022-09-13T06:58:47;30.50;99.90
19862;DHT22;10093;48.148;8.542;2022-09-13T07:03:48;29.90;99.90
19862;DHT22;10093;48.148;8.542;2022-09-13T07:06:16;29.90;99.90
19862;DHT22;10093;48.148;8.542;2022-09-13T07:08:44;30.40;99.90
19862;DHT22;10093;48.148;8.542;2022-09-13T07:11:12;29.60;99.90
19862;DHT22;10093;48.148;8.542;2022-09-13T07:13:38;30.80;99.90
19862;DHT22;10093;48.148;8.542;2022-09-13T07:16:09;32.00;99.90
19862;DHT22;10093;48.148;8.542;2022-09-13T07:18:35;31.90;99.90
19862;DHT22;10093;48.148;8.542;2022-09-13T07:21:03;32.10;99.90
19862;DHT22;10093;48.148;8.542;2022-09-13T07:23:31;32.80;99.90
19862;DHT22;10093;48.148;8.542;2022-09-13T07:25:59;33.50;99.90
19862;DHT22;10093;48.148;8.542;2022-09-13T07:28:31;33.70;99.90
19862;DHT22;10093;48.148;8.542;2022-09-13T07:31:11;33.60;99.90
19862;DHT22;10093;48.148;8.542;2022-09-13T07:33:38;34.40;99.90
19862;DHT22;10093;48.148;8.542;2022-09-13T07:36:05;33.30;99.90
19862;DHT22;10093;48.148;8.542;2022-09-13T07:38:41;33.90;99.90
19862;DHT22;10093;48.148;8.542;2022-09-13T07:41:14;34.70;99.90
19862;DHT22;10093;48.148;8.542;2022-09-13T07:43:41;35.50;99.90
19862;DHT22;10093;48.148;8.542;2022-09-13T07:46:09;35.70;99.90
19862;DHT22;10093;48.148;8.542;2022-09-13T07:48:37;35.20;99.80
19862;DHT22;10093;48.148;8.542;2022-09-13T07:51:04;35.20;99.90
19862;DHT22;10093;48.148;8.542;2022-09-13T07:53:31;34.50;99.90
19862;DHT22;10093;48.148;8.542;2022-09-13T07:56:05;33.90;99.90
19862;DHT22;10093;48.148;8.542;2022-09-13T07:58:33;33.60;99.90
19862;DHT22;10093;48.148;8.542;2022-09-13T08:01:23;32.70;99.90
19862;DHT22;10093;48.148;8.542;2022-09-13T08:03:59;32.20;99.90
19862;DHT22;10093;48.148;8.542;2022-09-13T08:06:28;31.20;99.90
19862;DHT22;10093;48.148;8.542;2022-09-13T08:08:54;31.70;99.90
19862;DHT22;10093;48.148;8.542;2022-09-13T08:11:26;30.60;99.90
19862;DHT22;10093;48.148;8.542;2022-09-13T08:13:52;29.80;99.90
19862;DHT22;10093;48.148;8.542;2022-09-13T08:16:20;29.50;99.90
19862;DHT22;10093;48.148;8.542;2022-09-13T08:18:51;30.50;99.90
19862;DHT22;10093;48.148;8.542;2022-09-13T08:21:17;31.30;99.90
19862;DHT22;10093;48.148;8.542;2022-09-13T08:23:43;28.80;99.90
19862;DHT22;10093;48.148;8.542;2022-09-13T08:26:09;27.60;99.90
19862;DHT22;10093;48.148;8.542;2022-09-13T08:28:36;28.60;99.90
19862;DHT22;10093;48.148;8.542;2022-09-13T08:31:07;29.40;99.90
19862;DHT22;10093;48.148;8.542;2022-09-13T08:33:34;31.90;99.90
19862;DHT22;10093;48.148;8.542;2022-09-13T08:35:59;31.80;99.90
19862;DHT22;10093;48.148;8.542;2022-09-13T08:38:26;33.10;99.90
19862;DHT22;10093;48.148;8.542;2022-09-13T08:40:58;33.60;99.90
19862;DHT22;10093;48.148;8.542;2022-09-13T08:43:53;35.30;99.90
19862;DHT22;10093;48.148;8.542;2022-09-13T08:46:23;36.10;99.90
19862;DHT22;10093;48.148;8.542;2022-09-13T08:48:52;34.50;99.90
19862;DHT22;10093;48.148;8.542;2022-09-13T08:51:46;33.80;99.90
19862;DHT22;10093;48.148;8.542;2022-09-13T08:54:14;33.60;99.90
19862;DHT22;10093;48.148;8.542;2022-09-13T09:02:47;33.20;99.90
19862;DHT22;10093;48.148;8.542;2022-09-13T09:05:21;33.40;99.90
19862;DHT22;10093;48.148;8.542;2022-09-13T09:10:29;32.70;99.90
19862;DHT22;10093;48.148;8.542;2022-09-13T09:12:58;31.70;99.90
19862;DHT22;10093;48.148;8.542;2022-09-13T09:15:34;30.00;99.90
19862;DHT22;10093;48.148;8.542;2022-09-13T09:18:13;29.80;99.90
19862;DHT22;10093;48.148;8.542;2022-09-13T09:23:36;28.80;99.90
19862;DHT22;10093;48.148;8.542;2022-09-13T09:26:24;28.90;99.90
19862;DHT22;10093;48.148;8.542;2022-09-13T09:29:20;28.20;99.90
19862;DHT22;10093;48.148;8.542;2022-09-13T09:32:15;29.70;99.90
19862;DHT22;10093;48.148;8.542;2022-09-13T09:37:23;31.80;99.90
19862;DHT22;10093;48.148;8.542;2022-09-13T09:39:51;32.00;99.90
19862;DHT22;10093;48.148;8.542;2022-09-13T09:42:26;32.50;99.90
19862;DHT22;10093;48.148;8.542;2022-09-13T09:45:29;33.20;99.90
19862;DHT22;10093;48.148;8.542;2022-09-13T09:47:59;33.50;99.90
19862;DHT22;10093;48.148;8.542;2022-09-13T09:50:32;34.20;99.90
19862;DHT22;10093;48.148;8.542;2022-09-13T09:55:34;33.90;99.90
19862;DHT22;10093;48.148;8.542;2022-09-13T09:58:06;33.00;99.90
19862;DHT22;10093;48.148;8.542;2022-09-13T10:00:49;33.70;99.90
19862;DHT22;10093;48.148;8.542;2022-09-13T10:03:27;33.50;99.90
19862;DHT22;10093;48.148;8.542;2022-09-13T10:06:11;32.90;99.90
19862;DHT22;10093;48.148;8.542;2022-09-13T10:08:40;33.30;99.90
19862;DHT22;10093;48.148;8.542;2022-09-13T10:11:06;33.70;99.90
19862;DHT22;10093;48.148;8.542;2022-09-13T10:13:32;33.90;99.60
19862;DHT22;10093;48.148;8.542;2022-09-13T10:16:06;33.80;96.40
19862;DHT22;10093;48.148;8.542;2022-09-13T10:18:46;33.80;98.10
19862;DHT22;10093;48.148;8.542;2022-09-13T10:21:22;35.00;96.50
19862;DHT22;10093;48.148;8.542;2022-09-13T10:23:52;35.30;97.60
19862;DHT22;10093;48.148;8.542;2022-09-13T10:26:37;35.20;95.80
19862;DHT22;10093;48.148;8.542;2022-09-13T10:29:08;34.50;94.70
19862;DHT22;10093;48.148;8.542;2022-09-13T10:31:43;34.90;94.90
19862;DHT22;10093;48.148;8.542;2022-09-13T10:34:30;35.40;94.20
19862;DHT22;10093;48.148;8.542;2022-09-13T10:37:20;36.10;91.60
19862;DHT22;10093;48.148;8.542;2022-09-13T10:40:16;35.60;93.30
19862;DHT22;10093;48.148;8.542;2022-09-13T10:42:37;36.30;93.20
19862;DHT22;10093;48.148;8.542;2022-09-13T10:45:08;36.90;92.40
19862;DHT22;10093;48.148;8.542;2022-09-13T10:47:48;36.00;93.80
19862;DHT22;10093;48.148;8.542;2022-09-13T10:50:24;33.50;95.00
19862;DHT22;10093;48.148;8.542;2022-09-13T10:52:51;34.40;94.90
19862;DHT22;10093;48.148;8.542;2022-09-13T10:58:10;32.80;94.60
19862;DHT22;10093;48.148;8.542;2022-09-13T11:06:18;31.20;96.70
19862;DHT22;10093;48.148;8.542;2022-09-13T11:11:45;30.10;98.60
19862;DHT22;10093;48.148;8.542;2022-09-13T11:14:18;29.30;97.30
19862;DHT22;10093;48.148;8.542;2022-09-13T11:22:15;30.60;98.30
19862;DHT22;10093;48.148;8.542;2022-09-13T11:27:38;30.80;98.40
19862;DHT22;10093;48.148;8.542;2022-09-13T11:30:14;31.70;99.80
19862;DHT22;10093;48.148;8.542;2022-09-13T11:32:51;29.80;99.20
19862;DHT22;10093;48.148;8.542;2022-09-13T11:38:14;30.80;99.10
19862;DHT22;10093;48.148;8.542;2022-09-13T11:43:34;28.60;99.80
19862;DHT22;10093;48.148;8.542;2022-09-13T11:54:25;29.90;99.90
19862;DHT22;10093;48.148;8.542;2022-09-13T11:57:39;29.80;99.90
19862;DHT22;10093;48.148;8.542;2022-09-13T11:59:53;31.10;99.90
19862;DHT22;10093;48.148;8.542;2022-09-13T12:05:05;30.00;99.90
19862;DHT22;10093;48.148;8.542;2022-09-13T12:07:45;30.40;99.90
19862;DHT22;10093;48.148;8.542;2022-09-13T12:11:07;30.90;99.90
19862;DHT22;10093;48.148;8.542;2022-09-13T12:13:13;30.00;99.90
19862;DHT22;10093;48.148;8.542;2022-09-13T12:15:42;30.50;99.90
19862;DHT22;10093;48.148;8.542;2022-09-13T12:18:27;31.90;99.90
19862;DHT22;10093;48.148;8.542;2022-09-13T12:21:07;34.10;99.20
19862;DHT22;10093;48.148;8.542;2022-09-13T12:23:52;33.30;99.30
19862;DHT22;10093;48.148;8.542;2022-09-13T12:29:34;31.80;98.40
19862;DHT22;10093;48.148;8.542;2022-09-13T12:32:03;31.30;99.90
19862;DHT22;10093;48.148;8.542;2022-09-13T12:35:06;32.00;99.40
19862;DHT22;10093;48.148;8.542;2022-09-13T13:02:39;31.70;98.40
19862;DHT22;10093;48.148;8.542;2022-09-13T13:05:30;31.50;98.50
19862;DHT22;10093;48.148;8.542;2022-09-13T13:08:04;31.10;98.80
19862;DHT22;10093;48.148;8.542;2022-09-13T13:10:36;30.80;99.20
19862;DHT22;10093;48.148;8.542;2022-09-13T13:13:14;30.60;99.90
19862;DHT22;10093;48.148;8.542;2022-09-13T13:18:51;30.10;99.90
19862;DHT22;10093;48.148;8.542;2022-09-13T13:26:48;30.00;99.90
19862;DHT22;10093;48.148;8.542;2022-09-13T13:29:28;30.30;99.90
19862;DHT22;10093;48.148;8.542;2022-09-13T13:36:59;30.80;99.90
19862;DHT22;10093;48.148;8.542;2022-09-13T13:42:22;29.60;99.90
19862;DHT22;10093;48.148;8.542;2022-09-13T13:49:50;31.60;99.90
19862;DHT22;10093;48.148;8.542;2022-09-13T13:59:54;33.20;99.90
19862;DHT22;10093;48.148;8.542;2022-09-13T14:02:33;32.90;99.90
19862;DHT22;10093;48.148;8.542;2022-09-13T14:05:08;32.20;99.90
19862;DHT22;10093;48.148;8.542;2022-09-13T14:07:44;32.30;99.90
19862;DHT22;10093;48.148;8.542;2022-09-13T14:10:28;33.60;99.60
19862;DHT22;10093;48.148;8.542;2022-09-13T14:13:13;34.10;99.10
19862;DHT22;10093;48.148;8.542;2022-09-13T14:15:44;33.90;99.20
19862;DHT22;10093;48.148;8.542;2022-09-13T14:21:17;34.20;99.40
19862;DHT22;10093;48.148;8.542;2022-09-13T14:23:43;34.30;99.00
19862;DHT22;10093;48.148;8.542;2022-09-13T14:26:10;34.20;99.80
19862;DHT22;10093;48.148;8.542;2022-09-13T14:28:36;34.20;99.00
19862;DHT22;10093;48.148;8.542;2022-09-13T14:31:02;33.90;98.80
19862;DHT22;10093;48.148;8.542;2022-09-13T14:33:31;33.60;99.10
19862;DHT22;10093;48.148;8.542;2022-09-13T14:38:28;33.10;99.60
19862;DHT22;10093;48.148;8.542;2022-09-13T14:41:12;33.10;99.70
19862;DHT22;10093;48.148;8.542;2022-09-13T14:43:39;33.00;99.90
19862;DHT22;10093;48.148;8.542;2022-09-13T14:46:06;33.00;99.20
19862;DHT22;10093;48.148;8.542;2022-09-13T14:48:56;32.10;99.90
19862;DHT22;10093;48.148;8.542;2022-09-13T14:51:27;32.10;99.90
19862;DHT22;10093;48.148;8.542;2022-09-13T14:53:57;31.90;99.90
19862;DHT22;10093;48.148;8.542;2022-09-13T14:56:30;31.80;99.90
19862;DHT22;10093;48.148;8.542;2022-09-13T14:58:59;32.10;99.90
19862;DHT22;10093;48.148;8.542;2022-09-13T15:01:30;31.60;99.90
19862;DHT22;10093;48.148;8.542;2022-09-13T15:03:59;31.40;99.90
19862;DHT22;10093;48.148;8.542;2022-09-13T15:06:33;31.70;99.90
19862;DHT22;10093;48.148;8.542;2022-09-13T15:14:26;31.30;99.90
19862;DHT22;10093;48.148;8.542;2022-09-13T15:19:38;29.30;99.90
19862;DHT22;10093;48.148;8.542;2022-09-13T15:22:24;29.80;99.90
19862;DHT22;10093;48.148;8.542;2022-09-13T15:24:59;30.20;99.90
19862;DHT22;10093;48.148;8.542;2022-09-13T15:27:31;30.20;99.90
19862;DHT22;10093;48.148;8.542;2022-09-13T15:30:03;30.10;99.90
19862;DHT22;10093;48.148;8.542;2022-09-13T15:32:41;30.20;99.90
19862;DHT22;10093;48.148;8.542;2022-09-13T15:35:27;30.00;99.90
19862;DHT22;10093;48.148;8.542;2022-09-13T15:38:13;28.50;99.90
19862;DHT22;10093;48.148;8.542;2022-09-13T15:40:56;27.70;99.90
19862;DHT22;10093;48.148;8.542;2022-09-13T15:43:22;27.80;99.90
19862;DHT22;10093;48.148;8.542;2022-09-13T15:45:48;27.80;99.90
19862;DHT22;10093;48.148;8.542;2022-09-13T15:48:28;27.60;99.90
19862;DHT22;10093;48.148;8.542;2022-09-13T15:51:13;27.60;99.90
19862;DHT22;10093;48.148;8.542;2022-09-13T15:53:42;27.60;99.90
19862;DHT22;10093;48.148;8.542;2022-09-13T15:56:12;27.80;99.90
19862;DHT22;10093;48.148;8.542;2022-09-13T15:58:38;27.40;99.90
19862;DHT22;10093;48.148;8.542;2022-09-13T16:01:04;27.10;99.90
19862;DHT22;10093;48.148;8.542;2022-09-13T16:03:30;27.00;99.90
19862;DHT22;10093;48.148;8.542;2022-09-13T16:05:56;27.00;99.90
19862;DHT22;10093;48.148;8.542;2022-09-13T16:08:23;26.80;99.90
19862;DHT22;10093;48.148;8.542;2022-09-13T16:10:49;26.80;99.90
19862;DHT22;10093;48.148;8.542;2022-09-13T16:13:14;26.60;99.90
19862;DHT22;10093;48.148;8.542;2022-09-13T16:15:40;26.40;99.90
19862;DHT22;10093;48.148;8.542;2022-09-13T16:18:06;26.30;99.90
19862;DHT22;10093;48.148;8.542;2022-09-13T16:20:32;26.10;99.90
19862;DHT22;10093;48.148;8.542;2022-09-13T16:22:57;26.10;99.90
19862;DHT22;10093;48.148;8.542;2022-09-13T16:25:23;25.90;99.90
19862;DHT22;10093;48.148;8.542;2022-09-13T16:27:48;25.70;99.90
19862;DHT22;10093;48.148;8.542;2022-09-13T16:30:18;25.60;99.90
19862;DHT22;10093;48.148;8.542;2022-09-13T16:32:44;25.60;99.90
19862;DHT22;10093;48.148;8.542;2022-09-13T16:35:11;25.60;99.90
19862;DHT22;10093;48.148;8.542;2022-09-13T16:37:38;25.50;99.90
19862;DHT22;10093;48.148;8.542;2022-09-13T16:40:05;25.30;99.90
19862;DHT22;10093;48.148;8.542;2022-09-13T16:42:33;25.40;99.90
19862;DHT22;10093;48.148;8.542;2022-09-13T16:44:59;25.40;99.90
19862;DHT22;10093;48.148;8.542;2022-09-13T16:47:25;25.40;99.90
19862;DHT22;10093;48.148;8.542;2022-09-13T16:49:51;25.20;99.90
19862;DHT22;10093;48.148;8.542;2022-09-13T16:52:17;24.70;99.90
19862;DHT22;10093;48.148;8.542;2022-09-13T16:54:42;24.30;99.90
19862;DHT22;10093;48.148;8.542;2022-09-13T16:57:11;23.90;99.90
19862;DHT22;10093;48.148;8.542;2022-09-13T16:59:38;23.80;99.90
19862;DHT22;10093;48.148;8.542;2022-09-13T17:02:06;23.80;99.90
19862;DHT22;10093;48.148;8.542;2022-09-13T17:04:32;23.60;99.90
19862;DHT22;10093;48.148;8.542;2022-09-13T17:06:58;23.50;99.90
19862;DHT22;10093;48.148;8.542;2022-09-13T17:09:26;23.50;99.90
19862;DHT22;10093;48.148;8.542;2022-09-13T17:11:52;23.30;99.90
19862;DHT22;10093;48.148;8.542;2022-09-13T17:14:18;23.10;99.90
19862;DHT22;10093;48.148;8.542;2022-09-13T17:16:47;22.90;99.90
19862;DHT22;10093;48.148;8.542;2022-09-13T17:19:16;23.00;99.90
19862;DHT22;10093;48.148;8.542;2022-09-13T17:21:42;22.80;99.90
19862;DHT22;10093;48.148;8.542;2022-09-13T17:24:08;22.70;99.90
19862;DHT22;10093;48.148;8.542;2022-09-13T17:26:34;22.50;99.90
19862;DHT22;10093;48.148;8.542;2022-09-13T17:28:59;22.30;99.90
19862;DHT22;10093;48.148;8.542;2022-09-13T17:31:25;22.10;99.90
19862;DHT22;10093;48.148;8.542;2022-09-13T17:33:51;22.10;99.90
19862;DHT22;10093;48.148;8.542;2022-09-13T17:36:18;22.10;99.90
19862;DHT22;10093;48.148;8.542;2022-09-13T17:38:44;21.80;99.90
19862;DHT22;10093;48.148;8.542;2022-09-13T17:41:15;21.60;99.90
19862;DHT22;10093;48.148;8.542;2022-09-13T17:43:42;21.70;99.90
19862;DHT22;10093;48.148;8.542;2022-09-13T17:46:11;21.40;99.90
19862;DHT22;10093;48.148;8.542;2022-09-13T17:48:37;21.40;99.90
19862;DHT22;10093;48.148;8.542;2022-09-13T17:51:05;21.50;99.90
19862;DHT22;10093;48.148;8.542;2022-09-13T17:53:40;21.50;99.90
19862;DHT22;10093;48.148;8.542;2022-09-13T17:56:06;21.40;99.90
19862;DHT22;10093;48.148;8.542;2022-09-13T17:58:32;21.50;99.90
19862;DHT22;10093;48.148;8.542;2022-09-13T18:01:02;21.50;99.90
19862;DHT22;10093;48.148;8.542;2022-09-13T18:03:28;21.70;99.90
19862;DHT22;10093;48.148;8.542;2022-09-13T18:05:59;21.70;99.90
19862;DHT22;10093;48.148;8.542;2022-09-13T18:08:26;21.30;99.90
19862;DHT22;10093;48.148;8.542;2022-09-13T18:10:52;21.30;99.90
19862;DHT22;10093;48.148;8.542;2022-09-13T18:13:18;21.30;99.90
19862;DHT22;10093;48.148;8.542;2022-09-13T18:15:44;21.40;99.90
19862;DHT22;10093;48.148;8.542;2022-09-13T18:18:11;21.60;99.90
19862;DHT22;10093;48.148;8.542;2022-09-13T18:20:37;21.70;99.90
19862;DHT22;10093;48.148;8.542;2022-09-13T18:23:03;21.80;99.90
19862;DHT22;10093;48.148;8.542;2022-09-13T18:25:28;21.90;99.90
19862;DHT22;10093;48.148;8.542;2022-09-13T18:27:54;21.90;99.90
19862;DHT22;10093;48.148;8.542;2022-09-13T18:30:20;21.80;99.90
19862;DHT22;10093;48.148;8.542;2022-09-13T18:32:45;21.80;99.90
19862;DHT22;10093;48.148;8.542;2022-09-13T18:35:11;21.70;99.90
19862;DHT22;10093;48.148;8.542;2022-09-13T18:37:36;21.80;99.90
19862;DHT22;10093;48.148;8.542;2022-09-13T18:40:02;21.90;99.90
19862;DHT22;10093;48.148;8.542;2022-09-13T18:42:30;21.90;99.90
19862;DHT22;10093;48.148;8.542;2022-09-13T18:44:55;21.70;99.90
19862;DHT22;10093;48.148;8.542;2022-09-13T18:47:21;21.40;99.90
19862;DHT22;10093;48.148;8.542;2022-09-13T18:49:47;21.20;99.90
19862;DHT22;10093;48.148;8.542;2022-09-13T18:52:12;21.20;99.90
19862;DHT22;10093;48.148;8.542;2022-09-13T18:54:38;21.00;99.90
19862;DHT22;10093;48.148;8.542;2022-09-13T18:57:03;21.00;99.90
19862;DHT22;10093;48.148;8.542;2022-09-13T18:59:29;21.10;99.90